sensor_id;sensor_type;location;lat;lon;timestamp;pressure;altitude;pressure_sealevel;temperature;humidity
31011;BME280;26395;53.412;19.598;2024-01-11T00:03:31;101219.81;;;0.03;99.12
31011;BME280;26395;53.412;19.598;2024-01-11T00:18:36;101204.71;;;0.14;98.92
31011;BME280;26395;53.412;19.598;2024-01-11T00:33:41;101221.74;;;0.37;98.70
31011;BME280;26395;53.412;19.598;2024-01-11T00:48:45;101227.41;;;0.54;98.83
31011;BME280;26395;53.412;19.598;2024-01-11T01:03:49;101197.61;;;0.33;99.16
31011;BME280;26395;53.412;19.598;2024-01-11T01:18:52;101224.64;;;0.43;98.22
31011;BME280;26395;53.412;19.598;2024-01-11T01:33:58;101209.65;;;0.49;99.16
31011;BME280;26395;53.412;19.598;2024-01-11T01:49:02;101164.09;;;0.53;99.25
31011;BME280;26395;53.412;19.598;2024-01-11T02:04:06;101176.61;;;0.71;99.47
31011;BME280;26395;53.412;19.598;2024-01-11T02:19:13;101163.05;;;0.91;99.56
31011;BME280;26395;53.412;19.598;2024-01-11T02:34:18;101125.65;;;0.86;99.90
31011;BME280;26395;53.412;19.598;2024-01-11T02:49:22;101088.11;;;0.81;100.00
31011;BME280;26395;53.412;19.598;2024-01-11T03:04:26;101063.10;;;0.92;100.00
31011;BME280;26395;53.412;19.598;2024-01-11T03:19:30;101056.39;;;1.16;100.00
31011;BME280;26395;53.412;19.598;2024-01-11T03:34:34;101052.92;;;1.54;100.00
31011;BME280;26395;53.412;19.598;2024-01-11T03:49:39;101019.64;;;1.72;100.00
31011;BME280;26395;53.412;19.598;2024-01-11T04:04:43;101014.70;;;1.87;100.00
31011;BME280;26395;53.412;19.598;2024-01-11T04:19:47;101015.91;;;1.96;100.00
31011;BME280;26395;53.412;19.598;2024-01-11T04:34:51;101000.61;;;1.95;100.00
31011;BME280;26395;53.412;19.598;2024-01-11T04:49:55;100990.86;;;1.93;100.00
31011;BME280;26395;53.412;19.598;2024-01-11T05:04:58;100972.29;;;2.16;100.00
31011;BME280;26395;53.412;19.598;2024-01-11T05:20:02;100955.97;;;2.39;100.00
31011;BME280;26395;53.412;19.598;2024-01-11T05:35:07;100939.86;;;2.44;100.00
31011;BME280;26395;53.412;19.598;2024-01-11T05:50:11;100919.92;;;2.42;100.00
31011;BME280;26395;53.412;19.598;2024-01-11T06:05:15;100900.66;;;2.52;100.00
31011;BME280;26395;53.412;19.598;2024-01-11T06:20:19;100894.08;;;2.60;100.00
31011;BME280;26395;53.412;19.598;2024-01-11T06:35:24;100910.48;;;2.69;100.00
31011;BME280;26395;53.412;19.598;2024-01-11T06:50:27;100907.86;;;2.65;100.00
31011;BME280;26395;53.412;19.598;2024-01-11T07:05:32;100907.70;;;2.61;99.98
31011;BME280;26395;53.412;19.598;2024-01-11T07:20:36;100918.67;;;2.74;100.00
31011;BME280;26395;53.412;19.598;2024-01-11T07:35:40;100925.73;;;2.83;100.00
31011;BME280;26395;53.412;19.598;2024-01-11T07:50:45;100930.23;;;2.43;100.00
31011;BME280;26395;53.412;19.598;2024-01-11T08:05:49;100916.07;;;2.63;100.00
31011;BME280;26395;53.412;19.598;2024-01-11T08:20:55;100884.86;;;2.38;100.00
31011;BME280;26395;53.412;19.598;2024-01-11T08:35:59;100884.61;;;2.63;100.00
31011;BME280;26395;53.412;19.598;2024-01-11T08:51:04;100883.55;;;2.98;100.00
31011;BME280;26395;53.412;19.598;2024-01-11T09:06:10;100887.58;;;3.37;100.00
31011;BME280;26395;53.412;19.598;2024-01-11T09:21:17;100901.97;;;3.44;100.00
31011;BME280;26395;53.412;19.598;2024-01-11T09:36:22;100899.73;;;3.51;99.92
31011;BME280;26395;53.412;19.598;2024-01-11T09:51:29;100883.58;;;3.53;99.96
31011;BME280;26395;53.412;19.598;2024-01-11T10:06:34;100870.59;;;3.45;100.00
31011;BME280;26395;53.412;19.598;2024-01-11T10:21:43;100867.86;;;3.45;99.93
31011;BME280;26395;53.412;19.598;2024-01-11T10:36:47;100856.30;;;3.55;99.99
31011;BME280;26395;53.412;19.598;2024-01-11T10:52:02;100859.52;;;3.63;99.66
31011;BME280;26395;53.412;19.598;2024-01-11T11:07:13;100849.93;;;3.68;99.20
31011;BME280;26395;53.412;19.598;2024-01-11T11:22:18;100845.14;;;3.71;99.60
31011;BME280;26395;53.412;19.598;2024-01-11T11:37:23;100834.03;;;3.75;99.62
31011;BME280;26395;53.412;19.598;2024-01-11T11:52:30;100835.64;;;3.87;99.82
31011;BME280;26395;53.412;19.598;2024-01-11T12:07:35;100821.79;;;4.04;99.77
31011;BME280;26395;53.412;19.598;2024-01-11T12:22:38;100817.36;;;4.13;99.91
31011;BME280;26395;53.412;19.598;2024-01-11T12:38:14;100810.68;;;4.41;100.00
31011;BME280;26395;53.412;19.598;2024-01-11T12:53:19;100781.92;;;4.51;99.92
31011;BME280;26395;53.412;19.598;2024-01-11T13:08:27;100782.63;;;4.76;99.81
31011;BME280;26395;53.412;19.598;2024-01-11T13:23:33;100777.05;;;4.70;99.83
31011;BME280;26395;53.412;19.598;2024-01-11T13:38:37;100770.10;;;4.68;99.89
31011;BME280;26395;53.412;19.598;2024-01-11T13:53:41;100771.35;;;4.95;99.98
31011;BME280;26395;53.412;19.598;2024-01-11T14:08:45;100772.52;;;5.17;100.00
31011;BME280;26395;53.412;19.598;2024-01-11T14:23:49;100789.31;;;5.41;99.96
31011;BME280;26395;53.412;19.598;2024-01-11T14:38:57;100787.89;;;5.06;99.58
31011;BME280;26395;53.412;19.598;2024-01-11T14:54:01;100809.13;;;5.07;99.96
31011;BME280;26395;53.412;19.598;2024-01-11T15:09:07;100830.95;;;5.30;99.98
31011;BME280;26395;53.412;19.598;2024-01-11T15:24:23;100857.91;;;4.97;99.56
31011;BME280;26395;53.412;19.598;2024-01-11T15:39:27;100875.83;;;4.67;99.82
31011;BME280;26395;53.412;19.598;2024-01-11T15:54:36;100882.16;;;4.55;100.00
31011;BME280;26395;53.412;19.598;2024-01-11T16:09:40;100909.29;;;4.60;99.93
31011;BME280;26395;53.412;19.598;2024-01-11T16:24:47;100933.27;;;4.48;99.94
31011;BME280;26395;53.412;19.598;2024-01-11T16:39:54;100964.38;;;4.43;100.00
31011;BME280;26395;53.412;19.598;2024-01-11T16:55:24;100972.60;;;4.38;99.92
31011;BME280;26395;53.412;19.598;2024-01-11T17:10:29;100985.51;;;4.26;98.85
31011;BME280;26395;53.412;19.598;2024-01-11T17:25:35;101001.98;;;3.98;98.22
31011;BME280;26395;53.412;19.598;2024-01-11T17:40:39;101018.46;;;3.60;97.79
31011;BME280;26395;53.412;19.598;2024-01-11T17:55:43;101024.80;;;3.43;97.41
31011;BME280;26395;53.412;19.598;2024-01-11T18:10:49;101027.90;;;3.36;96.51
31011;BME280;26395;53.412;19.598;2024-01-11T18:25:55;101039.89;;;3.04;95.67
31011;BME280;26395;53.412;19.598;2024-01-11T18:40:59;101052.52;;;2.71;94.29
31011;BME280;26395;53.412;19.598;2024-01-11T18:56:12;101064.44;;;2.50;93.96
31011;BME280;26395;53.412;19.598;2024-01-11T19:11:19;101079.39;;;2.43;93.51
31011;BME280;26395;53.412;19.598;2024-01-11T19:26:24;101089.54;;;2.41;93.66
31011;BME280;26395;53.412;19.598;2024-01-11T19:41:40;101104.91;;;2.19;92.99
31011;BME280;26395;53.412;19.598;2024-01-11T19:56:45;101121.23;;;2.08;93.12
31011;BME280;26395;53.412;19.598;2024-01-11T20:11:50;101138.20;;;2.15;92.82
31011;BME280;26395;53.412;19.598;2024-01-11T20:26:54;101151.77;;;2.26;92.12
31011;BME280;26395;53.412;19.598;2024-01-11T20:41:59;101186.66;;;2.16;90.27
31011;BME280;26395;53.412;19.598;2024-01-11T20:57:06;101223.32;;;1.82;88.30
31011;BME280;26395;53.412;19.598;2024-01-11T21:12:11;101232.76;;;1.49;85.60
31011;BME280;26395;53.412;19.598;2024-01-11T21:27:23;101252.88;;;1.35;84.46
31011;BME280;26395;53.412;19.598;2024-01-11T21:42:27;101268.29;;;1.12;83.44
31011;BME280;26395;53.412;19.598;2024-01-11T21:57:37;101287.08;;;0.84;83.86
31011;BME280;26395;53.412;19.598;2024-01-11T22:12:44;101309.17;;;0.48;83.10
31011;BME280;26395;53.412;19.598;2024-01-11T22:27:51;101322.61;;;0.18;83.22
31011;BME280;26395;53.412;19.598;2024-01-11T22:42:55;101318.56;;;0.15;83.29
31011;BME280;26395;53.412;19.598;2024-01-11T22:57:58;101348.08;;;0.05;83.08
31011;BME280;26395;53.412;19.598;2024-01-11T23:13:03;101362.04;;;-0.50;83.33
31011;BME280;26395;53.412;19.598;2024-01-11T23:28:08;101377.95;;;-1.22;85.52
31011;BME280;26395;53.412;19.598;2024-01-11T23:43:12;101365.27;;;-1.74;85.77
31011;BME280;26395;53.412;19.598;2024-01-11T23:58:16;101354.11;;;-2.09;86.40
